createdAt,value
2023-05-14T00:00:15.347Z,241.69
2023-05-14T00:01:15.312Z,236.52
2023-05-14T00:02:15.411Z,237.76
2023-05-14T00:03:16.407Z,236.83
2023-05-14T00:04:15.326Z,238.04
2023-05-14T00:05:15.788Z,240.86
2023-05-14T00:06:15.274Z,245.46
2023-05-14T00:07:15.875Z,245.70
2023-05-14T00:08:15.255Z,244.44
2023-05-14T00:09:15.283Z,239.43
2023-05-14T00:10:15.273Z,240.43
2023-05-14T00:11:15.262Z,239.78
2023-05-14T00:12:15.257Z,237.46
2023-05-14T00:13:15.210Z,237.09
2023-05-14T00:14:15.251Z,237.73
2023-05-14T00:15:15.214Z,236.36
2023-05-14T00:16:15.264Z,242.17
2023-05-14T00:17:15.191Z,236.66
2023-05-14T00:18:15.806Z,237.61
2023-05-14T00:19:15.225Z,235.75
2023-05-14T00:20:15.315Z,234.24
2023-05-14T00:21:15.193Z,235.84
2023-05-14T00:22:15.204Z,234.25
2023-05-14T00:23:15.157Z,232.93
2023-05-14T00:24:15.174Z,235.09
2023-05-14T00:25:15.143Z,235.44
2023-05-14T00:26:15.167Z,233.70
2023-05-14T00:27:15.161Z,231.53
2023-05-14T00:28:15.772Z,231.07
2023-05-14T00:29:15.138Z,225.84
2023-05-14T00:30:15.294Z,223.89
2023-05-14T00:31:15.119Z,226.63
2023-05-14T00:32:15.087Z,225.19
2023-05-14T00:33:15.115Z,224.99
2023-05-14T00:34:15.121Z,225.31
2023-05-14T00:35:18.280Z,224.91
2023-05-14T00:36:16.958Z,228.15
2023-05-14T00:37:17.810Z,227.29
2023-05-14T00:38:15.062Z,224.71
2023-05-14T00:39:15.077Z,223.83
2023-05-14T00:40:15.045Z,220.79
2023-05-14T00:41:15.046Z,219.55
2023-05-14T00:42:15.062Z,216.75
2023-05-14T00:43:15.008Z,216.57
2023-05-14T00:44:15.028Z,217.73
2023-05-14T00:45:15.810Z,219.14
2023-05-14T00:46:15.047Z,219.20
2023-05-14T00:47:15.002Z,217.61
2023-05-14T00:48:14.996Z,218.95
2023-05-14T00:49:14.983Z,214.77
2023-05-14T00:50:15.332Z,210.16
2023-05-14T00:51:14.980Z,209.27
2023-05-14T00:52:14.970Z,211.29
2023-05-14T00:53:14.967Z,212.06
2023-05-14T00:54:14.958Z,208.02
2023-05-14T00:55:14.940Z,205.37
2023-05-14T00:56:14.941Z,206.56
2023-05-14T00:57:14.917Z,205.66
2023-05-14T00:58:14.935Z,208.09
2023-05-14T00:59:14.918Z,205.80
2023-05-14T01:00:15.321Z,204.06
2023-05-14T01:01:14.879Z,205.26
2023-05-14T01:02:15.818Z,201.05
2023-05-14T01:03:15.034Z,201.65
2023-05-14T01:04:14.904Z,203.42
2023-05-14T01:05:14.873Z,202.09
2023-05-14T01:06:14.856Z,204.54
2023-05-14T01:07:14.869Z,202.45
2023-05-14T01:08:14.853Z,203.75
2023-05-14T01:09:14.889Z,201.33
2023-05-14T01:10:15.307Z,202.13
2023-05-14T01:11:14.859Z,203.46
2023-05-14T01:12:14.818Z,201.95
2023-05-14T01:13:14.837Z,199.82
2023-05-14T01:14:14.817Z,204.26
2023-05-14T01:15:14.801Z,202.62
2023-05-14T01:16:14.922Z,204.44
2023-05-14T01:17:14.783Z,204.33
2023-05-14T01:18:14.821Z,202.28
2023-05-14T01:19:14.878Z,195.38
2023-05-14T01:20:14.812Z,195.17
2023-05-14T01:21:14.757Z,195.74
2023-05-14T01:22:14.759Z,199.85
2023-05-14T01:23:14.770Z,198.54
2023-05-14T01:24:14.749Z,200.41
2023-05-14T01:25:14.751Z,201.27
2023-05-14T01:26:14.740Z,198.03
2023-05-14T01:27:14.712Z,199.56
2023-05-14T01:28:14.705Z,199.16
2023-05-14T01:29:14.718Z,199.47
2023-05-14T01:30:14.827Z,200.56
2023-05-14T01:31:14.694Z,202.93
2023-05-14T01:32:14.709Z,208.67
2023-05-14T01:33:14.696Z,215.58
2023-05-14T01:34:14.672Z,218.73
2023-05-14T01:35:14.663Z,219.43
2023-05-14T01:36:14.650Z,219.76
2023-05-14T01:37:14.666Z,219.96
2023-05-14T01:38:14.619Z,219.80
2023-05-14T01:39:14.636Z,215.88
2023-05-14T01:40:14.838Z,217.54
2023-05-14T01:41:14.647Z,215.45
2023-05-14T01:42:14.591Z,214.54
2023-05-14T01:43:14.682Z,212.67
2023-05-14T01:44:14.603Z,211.91
2023-05-14T01:45:14.619Z,210.45
2023-05-14T01:46:14.630Z,211.18
2023-05-14T01:47:14.571Z,210.96
2023-05-14T01:48:14.579Z,210.70
2023-05-14T01:49:14.586Z,207.96
2023-05-14T01:50:14.850Z,207.78
2023-05-14T01:51:14.545Z,205.38
2023-05-14T01:52:14.578Z,207.33
2023-05-14T01:53:14.570Z,207.57
2023-05-14T01:54:14.556Z,208.18
2023-05-14T01:55:14.840Z,207.27
2023-05-14T01:56:14.535Z,205.17
2023-05-14T01:57:16.532Z,202.22
2023-05-14T01:58:14.580Z,203.93
2023-05-14T01:59:15.314Z,206.25
2023-05-14T02:00:14.809Z,204.59
2023-05-14T02:01:14.730Z,205.51
2023-05-14T02:02:14.650Z,205.55
2023-05-14T02:03:14.694Z,208.72
2023-05-14T02:04:14.732Z,207.80
2023-05-14T02:05:14.831Z,209.26
2023-05-14T02:06:14.780Z,208.53
2023-05-14T02:07:14.786Z,211.35
2023-05-14T02:08:14.815Z,211.40
2023-05-14T02:09:14.857Z,211.54
2023-05-14T02:10:14.879Z,212.55
2023-05-14T02:11:14.907Z,212.13
2023-05-14T02:12:14.911Z,210.20
2023-05-14T02:13:14.963Z,213.27
2023-05-14T02:14:16.861Z,215.40
2023-05-14T02:15:18.320Z,214.77
2023-05-14T02:16:15.069Z,221.03
2023-05-14T02:17:14.983Z,219.62
2023-05-14T02:18:14.972Z,218.26
2023-05-14T02:19:15.894Z,219.12
2023-05-14T02:20:15.329Z,217.37
2023-05-14T02:21:14.954Z,213.69
2023-05-14T02:22:14.973Z,215.46
2023-05-14T02:23:14.935Z,217.84
2023-05-14T02:24:14.936Z,217.24
2023-05-14T02:25:15.362Z,214.57
2023-05-14T02:26:14.915Z,215.93
2023-05-14T02:27:14.909Z,217.36
2023-05-14T02:28:14.911Z,215.30
2023-05-14T02:29:14.920Z,215.57
2023-05-14T02:30:15.319Z,214.01
2023-05-14T02:31:15.899Z,212.52
2023-05-14T02:32:14.911Z,209.37
2023-05-14T02:33:15.900Z,207.54
2023-05-14T02:34:14.860Z,206.98
2023-05-14T02:35:15.365Z,204.98
2023-05-14T02:36:14.847Z,204.69
2023-05-14T02:37:14.879Z,203.62
2023-05-14T02:38:14.826Z,200.44
2023-05-14T02:39:14.850Z,201.57
2023-05-14T02:40:14.800Z,201.00
2023-05-14T02:41:14.842Z,200.39
2023-05-14T02:42:14.835Z,201.64
2023-05-14T02:43:14.781Z,200.52
2023-05-14T02:44:14.812Z,199.58
2023-05-14T02:45:14.801Z,198.73
2023-05-14T02:46:14.869Z,197.62
2023-05-14T02:47:14.778Z,201.67
2023-05-14T02:48:14.754Z,201.31
2023-05-14T02:49:14.807Z,201.21
2023-05-14T02:50:14.749Z,199.84
2023-05-14T02:51:14.825Z,199.49
2023-05-14T02:52:14.724Z,200.60
2023-05-14T02:53:14.715Z,205.30
2023-05-14T02:54:16.412Z,202.36
2023-05-14T02:55:14.718Z,197.98
2023-05-14T02:56:14.825Z,200.53
2023-05-14T02:57:14.688Z,203.46
2023-05-14T02:58:14.704Z,203.35
2023-05-14T02:59:14.727Z,202.97
2023-05-14T03:00:14.689Z,203.73
2023-05-14T03:01:14.880Z,205.65
2023-05-14T03:02:14.773Z,206.00
2023-05-14T03:03:15.349Z,205.97
2023-05-14T03:04:14.803Z,205.77
2023-05-14T03:05:14.860Z,206.28
2023-05-14T03:06:15.350Z,205.58
2023-05-14T03:07:14.934Z,206.22
2023-05-14T03:08:14.934Z,207.34
2023-05-14T03:09:14.991Z,207.28
2023-05-14T03:10:15.020Z,203.12
2023-05-14T03:11:15.336Z,202.61
2023-05-14T03:12:15.065Z,203.43
2023-05-14T03:13:15.137Z,207.12
2023-05-14T03:14:15.151Z,203.23
2023-05-14T03:15:15.177Z,209.69
2023-05-14T03:16:15.357Z,205.49
2023-05-14T03:17:15.256Z,208.33
2023-05-14T03:18:15.277Z,208.57
2023-05-14T03:19:15.412Z,211.15
2023-05-14T03:20:15.319Z,206.11
2023-05-14T03:21:15.382Z,209.88
2023-05-14T03:22:15.409Z,207.57
2023-05-14T03:23:15.432Z,205.60
2023-05-14T03:24:15.457Z,205.39
2023-05-14T03:25:15.507Z,205.77
2023-05-14T03:26:15.854Z,206.57
2023-05-14T03:27:15.548Z,207.13
2023-05-14T03:28:15.606Z,209.01
2023-05-14T03:29:15.639Z,208.35
2023-05-14T03:30:15.673Z,208.33
2023-05-14T03:31:15.741Z,208.25
2023-05-14T03:32:15.785Z,207.68
2023-05-14T03:33:15.769Z,207.57
2023-05-14T03:34:15.884Z,206.60
2023-05-14T03:35:15.842Z,207.78
2023-05-14T03:36:15.893Z,206.78
2023-05-14T03:37:15.911Z,207.37
2023-05-14T03:38:15.980Z,206.68
2023-05-14T03:39:15.970Z,207.61
2023-05-14T03:40:16.024Z,206.59
2023-05-14T03:41:16.394Z,208.05
2023-05-14T03:42:16.111Z,208.69
2023-05-14T03:43:16.138Z,208.60
2023-05-14T03:44:16.170Z,209.56
2023-05-14T03:45:16.195Z,211.05
2023-05-14T03:46:16.364Z,211.54
2023-05-14T03:47:16.262Z,214.23
2023-05-14T03:48:16.398Z,210.97
2023-05-14T03:49:16.347Z,213.86
2023-05-14T03:50:16.432Z,217.27
2023-05-14T03:51:16.843Z,216.80
2023-05-14T03:52:16.411Z,218.71
2023-05-14T03:53:16.432Z,218.41
2023-05-14T03:54:16.451Z,217.06
2023-05-14T03:55:16.496Z,218.42
2023-05-14T03:56:16.869Z,219.50
2023-05-14T03:57:16.576Z,215.65
2023-05-14T03:58:16.625Z,216.41
2023-05-14T03:59:16.673Z,218.34
2023-05-14T04:00:16.682Z,216.85
2023-05-14T04:01:16.750Z,215.94
2023-05-14T04:02:17.355Z,215.12
2023-05-14T04:03:16.871Z,215.45
2023-05-14T04:04:16.778Z,217.17
2023-05-14T04:05:16.816Z,215.38
2023-05-14T04:06:16.848Z,214.13
2023-05-14T04:07:16.871Z,215.65
2023-05-14T04:08:16.920Z,213.35
2023-05-14T04:09:16.922Z,216.12
2023-05-14T04:10:16.952Z,213.48
2023-05-14T04:11:17.019Z,212.19
2023-05-14T04:12:17.032Z,212.07
2023-05-14T04:13:17.056Z,213.84
2023-05-14T04:14:17.113Z,208.03
2023-05-14T04:15:17.135Z,207.37
2023-05-14T04:16:17.246Z,209.60
2023-05-14T04:17:17.233Z,207.35
2023-05-14T04:18:17.268Z,203.70
2023-05-14T04:19:17.385Z,205.33
2023-05-14T04:20:17.321Z,205.88
2023-05-14T04:21:17.357Z,208.17
2023-05-14T04:22:17.398Z,209.02
2023-05-14T04:23:17.418Z,212.07
2023-05-14T04:24:17.446Z,207.28
2023-05-14T04:25:17.492Z,204.77
2023-05-14T04:26:17.514Z,204.24
2023-05-14T04:27:17.560Z,203.67
2023-05-14T04:28:17.561Z,203.15
2023-05-14T04:29:17.647Z,203.32
2023-05-14T04:30:17.678Z,201.33
2023-05-14T04:31:17.727Z,202.06
2023-05-14T04:32:17.771Z,202.07
2023-05-14T04:33:17.791Z,201.05
2023-05-14T04:34:17.843Z,198.88
2023-05-14T04:35:17.904Z,198.20
2023-05-14T04:36:18.365Z,198.58
2023-05-14T04:37:17.937Z,197.21
2023-05-14T04:38:18.012Z,197.92
2023-05-14T04:39:18.048Z,197.33
2023-05-14T04:40:18.108Z,196.48
2023-05-14T04:41:18.381Z,198.01
2023-05-14T04:42:18.144Z,197.40
2023-05-14T04:43:18.174Z,198.76
2023-05-14T04:44:18.234Z,198.99
2023-05-14T04:45:18.307Z,196.12
2023-05-14T04:46:18.353Z,191.44
2023-05-14T04:47:18.369Z,186.43
2023-05-14T04:48:18.372Z,183.15
2023-05-14T04:49:18.432Z,184.80
2023-05-14T04:50:18.505Z,183.41
2023-05-14T04:51:18.496Z,185.15
2023-05-14T04:52:18.623Z,176.21
2023-05-14T04:53:18.588Z,175.45
2023-05-14T04:54:18.671Z,175.19
2023-05-14T04:55:18.744Z,174.96
2023-05-14T04:56:18.761Z,177.31
2023-05-14T04:57:18.795Z,174.84
2023-05-14T04:58:18.847Z,178.89
2023-05-14T04:59:18.866Z,181.10
2023-05-14T05:00:18.906Z,180.90
2023-05-14T05:01:19.026Z,177.26
2023-05-14T05:02:19.016Z,180.75
2023-05-14T05:03:19.159Z,180.93
2023-05-14T05:04:19.208Z,180.84
2023-05-14T05:05:19.164Z,182.09
2023-05-14T05:06:19.203Z,177.18
2023-05-14T05:07:19.236Z,179.67
2023-05-14T05:08:19.311Z,182.42
2023-05-14T05:09:19.315Z,181.43
2023-05-14T05:10:19.370Z,185.31
2023-05-14T05:11:19.402Z,185.08
2023-05-14T05:12:19.442Z,188.68
2023-05-14T05:13:19.478Z,188.66
2023-05-14T05:14:19.521Z,188.71
2023-05-14T05:15:19.545Z,186.85
2023-05-14T05:16:19.616Z,189.25
2023-05-14T05:17:19.701Z,189.50
2023-05-14T05:18:20.378Z,187.78
2023-05-14T05:19:22.412Z,188.88
2023-05-14T05:20:20.825Z,189.12
2023-05-14T05:21:19.745Z,189.33
2023-05-14T05:22:19.754Z,188.78
2023-05-14T05:23:19.761Z,189.37
2023-05-14T05:24:19.766Z,186.08
2023-05-14T05:25:19.750Z,182.60
2023-05-14T05:26:19.711Z,179.68
2023-05-14T05:27:19.713Z,183.73
2023-05-14T05:28:19.692Z,181.09
2023-05-14T05:29:19.690Z,184.78
2023-05-14T05:30:20.365Z,181.31
2023-05-14T05:31:20.043Z,178.74
2023-05-14T05:32:19.784Z,177.34
2023-05-14T05:33:19.833Z,176.10
2023-05-14T05:34:19.871Z,175.78
2023-05-14T05:35:19.916Z,177.81
2023-05-14T05:36:19.944Z,177.40
2023-05-14T05:37:20.022Z,174.99
2023-05-14T05:38:20.067Z,172.68
2023-05-14T05:39:20.124Z,172.46
2023-05-14T05:40:20.143Z,171.13
2023-05-14T05:41:20.197Z,168.56
2023-05-14T05:42:20.220Z,168.89
2023-05-14T05:43:20.267Z,170.32
2023-05-14T05:44:20.307Z,174.79
2023-05-14T05:45:20.354Z,174.66
2023-05-14T05:46:20.452Z,178.54
2023-05-14T05:47:20.514Z,178.09
2023-05-14T05:48:20.500Z,180.29
2023-05-14T05:49:20.564Z,180.73
2023-05-14T05:50:20.706Z,183.27
2023-05-14T05:51:20.680Z,185.42
2023-05-14T05:52:20.718Z,187.27
2023-05-14T05:53:20.732Z,188.90
2023-05-14T05:54:20.784Z,189.20
2023-05-14T05:55:20.827Z,190.30
2023-05-14T05:56:20.897Z,190.27
2023-05-14T05:57:20.956Z,190.71
2023-05-14T05:58:20.981Z,191.66
2023-05-14T05:59:21.007Z,192.17
2023-05-14T06:00:21.168Z,193.61
2023-05-14T06:01:21.145Z,191.86
2023-05-14T06:02:21.207Z,194.94
2023-05-14T06:03:21.242Z,198.18
2023-05-14T06:04:21.247Z,195.34
2023-05-14T06:05:21.305Z,193.11
2023-05-14T06:06:21.324Z,189.53
2023-05-14T06:07:21.398Z,188.71
2023-05-14T06:08:21.450Z,186.16
2023-05-14T06:09:21.481Z,188.28
2023-05-14T06:10:21.624Z,188.09
2023-05-14T06:11:21.558Z,182.90
2023-05-14T06:12:21.588Z,187.76
2023-05-14T06:13:21.692Z,186.41
2023-05-14T06:14:21.734Z,185.63
2023-05-14T06:15:21.756Z,183.17
2023-05-14T06:16:21.828Z,180.80
2023-05-14T06:17:21.891Z,177.40
2023-05-14T06:18:21.924Z,174.82
2023-05-14T06:19:21.935Z,173.83
2023-05-14T06:20:22.167Z,173.47
2023-05-14T06:21:22.407Z,170.53
2023-05-14T06:22:22.111Z,172.41
2023-05-14T06:23:22.150Z,173.35
2023-05-14T06:24:22.223Z,175.23
2023-05-14T06:25:22.217Z,171.98
2023-05-14T06:26:22.407Z,175.42
2023-05-14T06:27:22.297Z,176.31
2023-05-14T06:28:22.398Z,174.67
2023-05-14T06:29:22.434Z,179.02
2023-05-14T06:30:22.743Z,179.82
2023-05-14T06:31:22.540Z,181.15
2023-05-14T06:32:22.670Z,184.76
2023-05-14T06:33:22.653Z,183.23
2023-05-14T06:34:22.680Z,184.73
2023-05-14T06:35:22.731Z,186.26
2023-05-14T06:36:22.767Z,187.59
2023-05-14T06:37:22.869Z,188.51
2023-05-14T06:38:22.869Z,185.86
2023-05-14T06:39:22.947Z,178.86
2023-05-14T06:40:23.421Z,186.87
2023-05-14T06:41:23.036Z,187.12
2023-05-14T06:42:23.092Z,186.22
2023-05-14T06:43:23.158Z,185.81
2023-05-14T06:44:23.199Z,184.14
2023-05-14T06:45:23.293Z,180.77
2023-05-14T06:46:23.421Z,176.27
2023-05-14T06:47:23.369Z,171.44
2023-05-14T06:48:23.492Z,167.11
2023-05-14T06:49:23.436Z,160.44
2023-05-14T06:50:23.855Z,165.92
2023-05-14T06:51:23.546Z,165.74
2023-05-14T06:52:23.674Z,170.35
2023-05-14T06:53:23.637Z,167.49
2023-05-14T06:54:23.671Z,167.43
2023-05-14T06:55:23.711Z,168.54
2023-05-14T06:56:23.802Z,166.98
2023-05-14T06:57:23.822Z,166.47
2023-05-14T06:58:23.861Z,165.22
2023-05-14T06:59:23.939Z,164.75
2023-05-14T07:00:24.159Z,162.45
2023-05-14T07:01:24.051Z,169.12
2023-05-14T07:02:24.101Z,169.86
2023-05-14T07:03:24.097Z,172.49
2023-05-14T07:04:24.222Z,170.12
2023-05-14T07:05:24.239Z,172.74
2023-05-14T07:06:24.271Z,168.14
2023-05-14T07:07:24.296Z,168.55
2023-05-14T07:08:24.373Z,168.54
2023-05-14T07:09:24.391Z,166.50
2023-05-14T07:10:24.554Z,165.86
2023-05-14T07:11:24.513Z,161.97
2023-05-14T07:12:24.547Z,156.64
2023-05-14T07:13:25.761Z,157.61
2023-05-14T07:14:24.545Z,157.32
2023-05-14T07:15:24.549Z,153.59
2023-05-14T07:16:24.539Z,155.62
2023-05-14T07:17:24.691Z,157.37
2023-05-14T07:18:24.540Z,158.48
2023-05-14T07:19:24.522Z,157.03
2023-05-14T07:20:24.718Z,156.84
2023-05-14T07:21:24.522Z,158.60
2023-05-14T07:22:24.486Z,160.98
2023-05-14T07:23:24.519Z,161.79
2023-05-14T07:24:24.506Z,165.80
2023-05-14T07:25:24.468Z,163.16
2023-05-14T07:26:24.545Z,166.80
2023-05-14T07:27:24.444Z,165.87
2023-05-14T07:28:24.468Z,164.27
2023-05-14T07:29:24.451Z,167.79
2023-05-14T07:30:24.740Z,164.11
2023-05-14T07:31:24.454Z,163.18
2023-05-14T07:32:24.435Z,159.82
2023-05-14T07:33:24.439Z,159.36
2023-05-14T07:34:24.411Z,157.28
2023-05-14T07:35:24.426Z,154.89
2023-05-14T07:36:24.420Z,154.69
2023-05-14T07:37:24.389Z,154.06
2023-05-14T07:38:24.363Z,157.27
2023-05-14T07:39:24.377Z,158.38
2023-05-14T07:40:24.497Z,156.62
2023-05-14T07:41:24.348Z,156.90
2023-05-14T07:42:35.065Z,156.75
2023-05-14T07:43:25.358Z,156.87
2023-05-14T07:44:24.345Z,157.00
2023-05-14T07:45:24.331Z,151.68
2023-05-14T07:46:24.326Z,156.75
2023-05-14T07:47:24.379Z,158.09
2023-05-14T07:48:24.366Z,157.09
2023-05-14T07:49:24.352Z,153.29
2023-05-14T07:50:24.516Z,153.51
2023-05-14T07:51:24.284Z,153.57
2023-05-14T07:52:24.310Z,149.85
2023-05-14T07:53:24.291Z,146.07
2023-05-14T07:54:24.326Z,146.49
2023-05-14T07:55:24.367Z,149.48
2023-05-14T07:56:24.417Z,144.99
2023-05-14T07:57:24.447Z,147.58
2023-05-14T07:58:24.459Z,148.66
2023-05-14T07:59:24.521Z,152.24
2023-05-14T08:00:24.746Z,148.53
2023-05-14T08:01:24.603Z,140.94
2023-05-14T08:02:25.065Z,137.52
2023-05-14T08:03:24.851Z,128.74
2023-05-14T08:04:24.796Z,126.49
2023-05-14T08:05:24.763Z,124.22
2023-05-14T08:06:24.797Z,128.27
2023-05-14T08:07:24.868Z,134.11
2023-05-14T08:08:24.883Z,129.46
2023-05-14T08:09:24.927Z,131.36
2023-05-14T08:10:25.160Z,126.52
2023-05-14T08:11:25.014Z,124.27
2023-05-14T08:12:25.059Z,122.47
2023-05-14T08:13:25.075Z,114.45
2023-05-14T08:14:25.131Z,116.06
2023-05-14T08:15:27.573Z,113.33
2023-05-14T08:16:25.202Z,120.86
2023-05-14T08:17:25.493Z,117.84
2023-05-14T08:18:25.187Z,120.50
2023-05-14T08:19:25.138Z,129.34
2023-05-14T08:20:25.511Z,126.15
2023-05-14T08:21:25.148Z,123.36
2023-05-14T08:22:25.144Z,127.46
2023-05-14T08:23:25.109Z,128.61
2023-05-14T08:24:25.140Z,128.97
2023-05-14T08:25:25.125Z,133.54
2023-05-14T08:26:25.089Z,132.34
2023-05-14T08:27:25.110Z,133.43
2023-05-14T08:28:25.086Z,132.97
2023-05-14T08:29:25.077Z,130.60
2023-05-14T08:30:25.449Z,130.11
2023-05-14T08:31:25.181Z,132.28
2023-05-14T08:32:25.068Z,134.87
2023-05-14T08:33:25.038Z,131.51
2023-05-14T08:34:25.058Z,132.51
2023-05-14T08:35:25.043Z,130.66
2023-05-14T08:36:25.035Z,137.35
2023-05-14T08:37:25.023Z,121.57
2023-05-14T08:38:25.021Z,107.92
2023-05-14T08:39:24.995Z,102.81
2023-05-14T08:40:25.286Z,103.63
2023-05-14T08:41:25.021Z,107.14
2023-05-14T08:42:24.987Z,107.31
2023-05-14T08:43:25.049Z,98.85
2023-05-14T08:44:24.950Z,88.54
2023-05-14T08:45:24.938Z,79.54
2023-05-14T08:46:24.947Z,76.25
2023-05-14T08:47:24.981Z,77.98
2023-05-14T08:48:24.968Z,71.07
2023-05-14T08:49:24.940Z,75.13
2023-05-14T08:50:25.240Z,73.37
2023-05-14T08:51:24.915Z,54.77
2023-05-14T08:52:24.952Z,52.80
2023-05-14T08:53:24.886Z,60.25
2023-05-14T08:54:24.921Z,60.00
2023-05-14T08:55:24.861Z,51.86
2023-05-14T08:56:24.916Z,47.81
2023-05-14T08:57:24.892Z,51.06
2023-05-14T08:58:24.888Z,35.75
2023-05-14T08:59:24.847Z,30.03
2023-05-14T09:00:25.169Z,34.57
2023-05-14T09:01:24.934Z,31.89
2023-05-14T09:02:25.093Z,30.38
2023-05-14T09:03:24.995Z,30.35
2023-05-14T09:04:24.994Z,34.15
2023-05-14T09:05:25.046Z,34.34
2023-05-14T09:06:25.086Z,29.58
2023-05-14T09:07:25.102Z,33.31
2023-05-14T09:08:25.125Z,27.72
2023-05-14T09:09:25.172Z,25.23
2023-05-14T09:10:25.553Z,25.00
2023-05-14T09:11:25.229Z,25.00
2023-05-14T09:12:25.267Z,24.93
2023-05-14T09:13:27.621Z,26.17
2023-05-14T09:14:25.356Z,34.84
2023-05-14T09:15:25.297Z,40.48
2023-05-14T09:16:25.301Z,33.54
2023-05-14T09:17:25.306Z,41.26
2023-05-14T09:18:25.399Z,44.45
2023-05-14T09:19:25.244Z,47.40
2023-05-14T09:20:25.692Z,46.03
2023-05-14T09:21:25.265Z,43.70
2023-05-14T09:22:25.258Z,28.88
2023-05-14T09:23:25.230Z,37.94
2023-05-14T09:24:25.240Z,41.95
2023-05-14T09:25:25.236Z,40.44
2023-05-14T09:26:25.223Z,43.32
2023-05-14T09:27:25.225Z,47.07
2023-05-14T09:28:25.189Z,43.94
2023-05-14T09:29:25.193Z,37.43
2023-05-14T09:30:25.474Z,31.24
2023-05-14T09:31:25.225Z,30.03
2023-05-14T09:32:25.241Z,25.00
2023-05-14T09:33:25.175Z,28.42
2023-05-14T09:34:25.130Z,31.61
2023-05-14T09:35:25.195Z,40.62
2023-05-14T09:36:25.156Z,38.05
2023-05-14T09:37:25.125Z,43.64
2023-05-14T09:38:25.127Z,42.98
2023-05-14T09:39:25.127Z,46.36
2023-05-14T09:40:25.531Z,37.34
2023-05-14T09:41:25.094Z,32.62
2023-05-14T09:42:25.469Z,34.65
2023-05-14T09:43:25.090Z,36.72
2023-05-14T09:44:25.102Z,38.31
2023-05-14T09:45:25.094Z,46.85
2023-05-14T09:46:25.092Z,48.71
2023-05-14T09:47:25.233Z,53.27
2023-05-14T09:48:25.090Z,49.61
2023-05-14T09:49:25.053Z,46.34
2023-05-14T09:50:25.290Z,43.65
2023-05-14T09:51:25.047Z,45.62
2023-05-14T09:52:25.037Z,47.61
2023-05-14T09:53:25.056Z,52.28
2023-05-14T09:54:25.006Z,37.69
2023-05-14T09:55:25.007Z,34.05
2023-05-14T09:56:24.985Z,25.00
2023-05-14T09:57:25.027Z,24.21
2023-05-14T09:58:25.049Z,30.81
2023-05-14T09:59:25.089Z,43.72
2023-05-14T10:00:25.191Z,53.73
2023-05-14T10:01:25.030Z,50.70
2023-05-14T10:02:24.974Z,51.36
2023-05-14T10:03:24.973Z,47.34
2023-05-14T10:04:24.970Z,50.29
2023-05-14T10:05:24.952Z,62.09
2023-05-14T10:06:24.940Z,58.09
2023-05-14T10:07:24.925Z,59.16
2023-05-14T10:08:24.929Z,56.77
2023-05-14T10:09:24.903Z,50.91
2023-05-14T10:10:25.141Z,48.18
2023-05-14T10:11:24.914Z,51.29
2023-05-14T10:12:24.924Z,53.56
2023-05-14T10:13:24.906Z,52.00
2023-05-14T10:14:24.918Z,49.26
2023-05-14T10:15:25.005Z,52.20
2023-05-14T10:16:25.012Z,54.60
2023-05-14T10:17:25.036Z,47.16
2023-05-14T10:18:25.005Z,37.99
2023-05-14T10:19:25.142Z,38.90
2023-05-14T10:20:25.474Z,44.79
2023-05-14T10:21:25.107Z,49.10
2023-05-14T10:22:25.127Z,54.76
2023-05-14T10:23:25.141Z,47.57
2023-05-14T10:24:25.185Z,38.07
2023-05-14T10:25:25.233Z,43.81
2023-05-14T10:26:25.228Z,45.62
2023-05-14T10:27:25.226Z,36.96
2023-05-14T10:28:25.285Z,32.49
2023-05-14T10:29:25.319Z,31.66
2023-05-14T10:30:25.808Z,31.56
2023-05-14T10:31:25.432Z,27.34
2023-05-14T10:32:25.378Z,32.40
2023-05-14T10:33:25.387Z,35.92
2023-05-14T10:34:25.419Z,40.30
2023-05-14T10:35:25.501Z,37.14
2023-05-14T10:36:25.468Z,32.56
2023-05-14T10:37:25.543Z,29.74
2023-05-14T10:38:25.526Z,28.32
2023-05-14T10:39:25.555Z,36.94
2023-05-14T10:40:25.751Z,41.83
2023-05-14T10:41:25.586Z,45.82
2023-05-14T10:42:25.601Z,41.74
2023-05-14T10:43:25.605Z,34.37
2023-05-14T10:44:25.657Z,36.82
2023-05-14T10:45:25.693Z,35.47
2023-05-14T10:46:25.760Z,37.17
2023-05-14T10:47:26.013Z,39.04
2023-05-14T10:48:25.751Z,40.03
2023-05-14T10:49:39.726Z,41.34
2023-05-14T10:50:26.839Z,41.52
2023-05-14T10:51:25.789Z,42.59
2023-05-14T10:52:25.996Z,43.83
2023-05-14T10:53:25.713Z,44.59
2023-05-14T10:54:25.718Z,46.63
2023-05-14T10:55:25.729Z,43.66
2023-05-14T10:56:25.723Z,42.10
2023-05-14T10:57:25.691Z,42.28
2023-05-14T10:58:25.708Z,39.36
2023-05-14T10:59:25.685Z,46.65
2023-05-14T11:00:25.872Z,44.38
2023-05-14T11:01:25.690Z,40.41
2023-05-14T11:02:26.095Z,40.37
2023-05-14T11:03:25.704Z,46.82
2023-05-14T11:04:25.696Z,50.13
2023-05-14T11:05:25.653Z,50.79
2023-05-14T11:06:25.675Z,47.99
2023-05-14T11:07:25.669Z,41.21
2023-05-14T11:08:28.026Z,35.52
2023-05-14T11:09:25.625Z,42.59
2023-05-14T11:10:25.899Z,47.70
2023-05-14T11:11:25.647Z,45.97
2023-05-14T11:12:25.637Z,45.26
2023-05-14T11:13:25.645Z,48.33
2023-05-14T11:14:25.587Z,46.18
2023-05-14T11:15:25.610Z,47.66
2023-05-14T11:16:25.609Z,43.95
2023-05-14T11:17:26.027Z,39.06
2023-05-14T11:18:25.611Z,34.73
2023-05-14T11:19:25.539Z,44.86
2023-05-14T11:20:25.923Z,43.83
2023-05-14T11:21:25.586Z,47.52
2023-05-14T11:22:25.592Z,49.58
2023-05-14T11:23:25.523Z,46.39
2023-05-14T11:24:25.591Z,39.30
2023-05-14T11:25:25.494Z,39.63
2023-05-14T11:26:25.591Z,47.84
2023-05-14T11:27:25.514Z,53.25
2023-05-14T11:28:25.530Z,51.68
2023-05-14T11:29:25.471Z,45.35
2023-05-14T11:30:25.727Z,46.44
2023-05-14T11:31:25.502Z,48.51
2023-05-14T11:32:25.473Z,52.07
2023-05-14T11:33:25.488Z,56.20
2023-05-14T11:34:25.459Z,58.45
2023-05-14T11:35:25.441Z,54.95
2023-05-14T11:36:25.457Z,51.71
2023-05-14T11:37:25.442Z,54.85
2023-05-14T11:38:25.437Z,47.35
2023-05-14T11:39:25.415Z,42.67
2023-05-14T11:40:25.639Z,46.42
2023-05-14T11:41:25.400Z,46.86
2023-05-14T11:42:25.439Z,43.17
2023-05-14T11:43:25.419Z,45.41
2023-05-14T11:44:25.403Z,44.84
2023-05-14T11:45:25.386Z,38.23
2023-05-14T11:46:25.416Z,43.86
2023-05-14T11:47:25.398Z,41.81
2023-05-14T11:48:25.391Z,41.49
2023-05-14T11:49:25.382Z,41.34
2023-05-14T11:50:25.541Z,49.34
2023-05-14T11:51:25.359Z,52.55
2023-05-14T11:52:25.347Z,52.29
2023-05-14T11:53:25.355Z,56.45
2023-05-14T11:54:25.345Z,51.65
2023-05-14T11:55:25.281Z,53.21
2023-05-14T11:56:25.290Z,50.54
2023-05-14T11:57:26.022Z,52.11
2023-05-14T11:58:25.559Z,38.17
2023-05-14T11:59:25.291Z,41.46
2023-05-14T12:00:25.494Z,46.53
2023-05-14T12:01:25.304Z,43.68
2023-05-14T12:02:25.324Z,49.01
2023-05-14T12:03:25.858Z,39.19
2023-05-14T12:04:25.276Z,46.44
2023-05-14T12:05:25.209Z,43.84
2023-05-14T12:06:25.239Z,40.76
2023-05-14T12:07:25.249Z,55.42
2023-05-14T12:08:25.216Z,58.71
2023-05-14T12:09:25.203Z,55.22
2023-05-14T12:10:25.524Z,46.39
2023-05-14T12:11:25.173Z,53.86
2023-05-14T12:12:25.193Z,57.12
2023-05-14T12:13:25.169Z,49.53
2023-05-14T12:14:25.188Z,41.95
2023-05-14T12:15:25.199Z,44.18
2023-05-14T12:16:25.195Z,51.88
2023-05-14T12:17:25.181Z,55.78
2023-05-14T12:18:25.542Z,65.39
2023-05-14T12:19:25.178Z,69.74
2023-05-14T12:20:25.361Z,73.10
2023-05-14T12:21:25.113Z,80.07
2023-05-14T12:22:25.157Z,80.67
2023-05-14T12:23:25.515Z,88.69
2023-05-14T12:24:25.217Z,92.69
2023-05-14T12:25:25.232Z,92.15
2023-05-14T12:26:25.272Z,99.43
2023-05-14T12:27:25.265Z,99.33
2023-05-14T12:28:25.284Z,93.46
2023-05-14T12:29:25.288Z,99.41
2023-05-14T12:30:25.305Z,98.17
2023-05-14T12:31:25.312Z,95.18
2023-05-14T12:32:25.315Z,97.79
2023-05-14T12:33:25.531Z,99.16
2023-05-14T12:34:25.348Z,98.70
2023-05-14T12:35:25.520Z,99.67